sensor_id;sensor_type;location;lat;lon;timestamp;pressure;altitude;pressure_sealevel;temperature;humidity
78562;BME280;68963;52.138;5.446;2023-04-08T00:00:03;102433.75;;;7.18;100.00
78562;BME280;68963;52.138;5.446;2023-04-08T00:02:31;102440.91;;;7.16;100.00
78562;BME280;68963;52.138;5.446;2023-04-08T00:04:58;102443.28;;;7.19;100.00
78562;BME280;68963;52.138;5.446;2023-04-08T00:07:25;102443.53;;;7.16;100.00
78562;BME280;68963;52.138;5.446;2023-04-08T00:09:51;102440.06;;;7.16;100.00
78562;BME280;68963;52.138;5.446;2023-04-08T00:12:18;102434.59;;;7.19;100.00
78562;BME280;68963;52.138;5.446;2023-04-08T00:14:44;102445.75;;;7.21;100.00
78562;BME280;68963;52.138;5.446;2023-04-08T00:17:11;102445.31;;;7.16;100.00
78562;BME280;68963;52.138;5.446;2023-04-08T00:19:38;102444.34;;;7.17;100.00
78562;BME280;68963;52.138;5.446;2023-04-08T00:22:04;102442.56;;;7.17;100.00
78562;BME280;68963;52.138;5.446;2023-04-08T00:24:31;102445.19;;;7.17;100.00
78562;BME280;68963;52.138;5.446;2023-04-08T00:26:57;102444.34;;;7.17;100.00
78562;BME280;68963;52.138;5.446;2023-04-08T00:29:23;102443.66;;;7.15;100.00
78562;BME280;68963;52.138;5.446;2023-04-08T00:31:50;102450.56;;;7.16;100.00
78562;BME280;68963;52.138;5.446;2023-04-08T00:34:17;102448.75;;;7.16;100.00
78562;BME280;68963;52.138;5.446;2023-04-08T00:36:44;102447.94;;;7.16;100.00
78562;BME280;68963;52.138;5.446;2023-04-08T00:39:13;102452.47;;;7.14;100.00
78562;BME280;68963;52.138;5.446;2023-04-08T00:41:40;102451.88;;;7.10;100.00
78562;BME280;68963;52.138;5.446;2023-04-08T00:44:06;102455.03;;;7.04;100.00
78562;BME280;68963;52.138;5.446;2023-04-08T00:46:35;102452.41;;;7.04;100.00
78562;BME280;68963;52.138;5.446;2023-04-08T00:49:04;102455.94;;;7.03;100.00
78562;BME280;68963;52.138;5.446;2023-04-08T00:51:33;102449.19;;;7.00;100.00
78562;BME280;68963;52.138;5.446;2023-04-08T00:54:02;102449.44;;;6.97;100.00
78562;BME280;68963;52.138;5.446;2023-04-08T00:56:31;102463.50;;;6.96;100.00
78562;BME280;68963;52.138;5.446;2023-04-08T00:58:59;102462.31;;;6.89;100.00
78562;BME280;68963;52.138;5.446;2023-04-08T01:04:09;102462.22;;;6.80;100.00
78562;BME280;68963;52.138;5.446;2023-04-08T01:09:37;102465.22;;;6.75;100.00
78562;BME280;68963;52.138;5.446;2023-04-08T01:12:07;102468.19;;;6.82;100.00
78562;BME280;68963;52.138;5.446;2023-04-08T01:14:38;102476.03;;;6.82;100.00
78562;BME280;68963;52.138;5.446;2023-04-08T01:17:07;102472.50;;;6.71;100.00
78562;BME280;68963;52.138;5.446;2023-04-08T01:19:38;102471.06;;;6.67;100.00
78562;BME280;68963;52.138;5.446;2023-04-08T01:22:38;102477.38;;;6.65;100.00
78562;BME280;68963;52.138;5.446;2023-04-08T01:25:20;102471.66;;;6.71;100.00
78562;BME280;68963;52.138;5.446;2023-04-08T01:27:48;102467.13;;;6.73;100.00
78562;BME280;68963;52.138;5.446;2023-04-08T01:30:17;102462.47;;;6.76;100.00
78562;BME280;68963;52.138;5.446;2023-04-08T01:32:45;102464.84;;;6.80;100.00
78562;BME280;68963;52.138;5.446;2023-04-08T01:35:14;102472.00;;;6.77;100.00
78562;BME280;68963;52.138;5.446;2023-04-08T01:37:41;102473.19;;;6.73;100.00
78562;BME280;68963;52.138;5.446;2023-04-08T01:40:09;102470.81;;;6.70;100.00
78562;BME280;68963;52.138;5.446;2023-04-08T01:42:37;102471.75;;;6.69;100.00
78562;BME280;68963;52.138;5.446;2023-04-08T01:45:04;102473.69;;;6.67;100.00
78562;BME280;68963;52.138;5.446;2023-04-08T01:47:32;102475.94;;;6.61;100.00
78562;BME280;68963;52.138;5.446;2023-04-08T01:50:00;102476.19;;;6.58;100.00
78562;BME280;68963;52.138;5.446;2023-04-08T01:52:27;102480.00;;;6.53;100.00
78562;BME280;68963;52.138;5.446;2023-04-08T01:54:55;102487.03;;;6.53;100.00
78562;BME280;68963;52.138;5.446;2023-04-08T01:57:34;102484.88;;;6.58;100.00
78562;BME280;68963;52.138;5.446;2023-04-08T02:00:05;102481.31;;;6.59;100.00
78562;BME280;68963;52.138;5.446;2023-04-08T02:02:35;102479.53;;;6.60;100.00
78562;BME280;68963;52.138;5.446;2023-04-08T02:05:03;102480.34;;;6.60;100.00
78562;BME280;68963;52.138;5.446;2023-04-08T02:07:29;102482.25;;;6.58;100.00
78562;BME280;68963;52.138;5.446;2023-04-08T02:09:56;102484.78;;;6.60;100.00
78562;BME280;68963;52.138;5.446;2023-04-08T02:12:22;102477.16;;;6.57;100.00
78562;BME280;68963;52.138;5.446;2023-04-08T02:14:49;102475.00;;;6.50;100.00
78562;BME280;68963;52.138;5.446;2023-04-08T02:20:07;102483.81;;;6.38;100.00
78562;BME280;68963;52.138;5.446;2023-04-08T02:22:39;102476.81;;;6.39;100.00
78562;BME280;68963;52.138;5.446;2023-04-08T02:25:12;102486.69;;;6.35;100.00
78562;BME280;68963;52.138;5.446;2023-04-08T02:27:41;102483.84;;;6.27;100.00
78562;BME280;68963;52.138;5.446;2023-04-08T02:30:09;102490.84;;;6.26;100.00
78562;BME280;68963;52.138;5.446;2023-04-08T02:32:37;102490.34;;;6.21;100.00
78562;BME280;68963;52.138;5.446;2023-04-08T02:35:04;102488.84;;;6.19;100.00
78562;BME280;68963;52.138;5.446;2023-04-08T02:37:32;102486.91;;;6.21;100.00
78562;BME280;68963;52.138;5.446;2023-04-08T02:39:59;102489.91;;;6.27;100.00
78562;BME280;68963;52.138;5.446;2023-04-08T02:42:25;102500.59;;;6.24;100.00
78562;BME280;68963;52.138;5.446;2023-04-08T02:44:52;102499.63;;;6.14;100.00
78562;BME280;68963;52.138;5.446;2023-04-08T02:47:19;102495.59;;;6.10;100.00
78562;BME280;68963;52.138;5.446;2023-04-08T02:49:45;102496.41;;;6.11;100.00
78562;BME280;68963;52.138;5.446;2023-04-08T02:52:12;102496.41;;;6.11;100.00
78562;BME280;68963;52.138;5.446;2023-04-08T02:54:38;102498.94;;;6.12;100.00
78562;BME280;68963;52.138;5.446;2023-04-08T02:57:05;102507.22;;;6.06;100.00
78562;BME280;68963;52.138;5.446;2023-04-08T02:59:31;102509.16;;;6.04;100.00
78562;BME280;68963;52.138;5.446;2023-04-08T03:01:58;102509.97;;;6.04;100.00
78562;BME280;68963;52.138;5.446;2023-04-08T03:04:25;102516.75;;;6.07;100.00
78562;BME280;68963;52.138;5.446;2023-04-08T03:06:52;102509.75;;;6.08;100.00
78562;BME280;68963;52.138;5.446;2023-04-08T03:09:18;102511.03;;;6.02;100.00
78562;BME280;68963;52.138;5.446;2023-04-08T03:11:45;102504.75;;;6.04;100.00
78562;BME280;68963;52.138;5.446;2023-04-08T03:14:17;102506.53;;;6.04;100.00
78562;BME280;68963;52.138;5.446;2023-04-08T03:16:44;102521.38;;;6.03;100.00
78562;BME280;68963;52.138;5.446;2023-04-08T03:19:10;102511.63;;;6.05;100.00
78562;BME280;68963;52.138;5.446;2023-04-08T03:21:37;102515.09;;;6.06;100.00
78562;BME280;68963;52.138;5.446;2023-04-08T03:24:03;102515.22;;;6.04;100.00
78562;BME280;68963;52.138;5.446;2023-04-08T03:26:30;102512.91;;;6.00;100.00
78562;BME280;68963;52.138;5.446;2023-04-08T03:28:57;102511.41;;;5.97;100.00
78562;BME280;68963;52.138;5.446;2023-04-08T03:31:24;102514.72;;;5.99;100.00
78562;BME280;68963;52.138;5.446;2023-04-08T03:33:51;102507.81;;;5.98;100.00
78562;BME280;68963;52.138;5.446;2023-04-08T03:36:17;102509.59;;;5.98;100.00
78562;BME280;68963;52.138;5.446;2023-04-08T03:38:44;102509.84;;;5.95;100.00
78562;BME280;68963;52.138;5.446;2023-04-08T03:41:10;102508.72;;;5.86;100.00
78562;BME280;68963;52.138;5.446;2023-04-08T03:43:37;102521.19;;;5.82;100.00
78562;BME280;68963;52.138;5.446;2023-04-08T03:46:03;102520.59;;;5.79;100.00
78562;BME280;68963;52.138;5.446;2023-04-08T03:48:31;102514.84;;;5.74;100.00
78562;BME280;68963;52.138;5.446;2023-04-08T03:50:57;102518.19;;;5.76;100.00
78562;BME280;68963;52.138;5.446;2023-04-08T03:53:24;102516.53;;;5.75;100.00
78562;BME280;68963;52.138;5.446;2023-04-08T03:55:53;102523.88;;;5.70;100.00
78562;BME280;68963;52.138;5.446;2023-04-08T03:58:19;102522.78;;;5.61;100.00
78562;BME280;68963;52.138;5.446;2023-04-08T04:00:46;102526.06;;;5.52;100.00
78562;BME280;68963;52.138;5.446;2023-04-08T04:03:12;102531.78;;;5.46;100.00
78562;BME280;68963;52.138;5.446;2023-04-08T04:05:40;102528.97;;;5.36;100.00
78562;BME280;68963;52.138;5.446;2023-04-08T04:08:06;102536.13;;;5.34;100.00
78562;BME280;68963;52.138;5.446;2023-04-08T04:10:34;102536.34;;;5.31;100.00
78562;BME280;68963;52.138;5.446;2023-04-08T04:13:01;102545.56;;;5.24;100.00
78562;BME280;68963;52.138;5.446;2023-04-08T04:15:27;102540.75;;;5.18;100.00
78562;BME280;68963;52.138;5.446;2023-04-08T04:17:54;102544.59;;;5.25;100.00
78562;BME280;68963;52.138;5.446;2023-04-08T04:20:20;102546.94;;;5.17;100.00
78562;BME280;68963;52.138;5.446;2023-04-08T04:22:47;102548.81;;;5.15;100.00
78562;BME280;68963;52.138;5.446;2023-04-08T04:25:13;102553.25;;;5.01;100.00
78562;BME280;68963;52.138;5.446;2023-04-08T04:27:40;102547.63;;;4.95;100.00
78562;BME280;68963;52.138;5.446;2023-04-08T04:30:07;102567.69;;;4.94;100.00
78562;BME280;68963;52.138;5.446;2023-04-08T04:32:35;102563.22;;;4.83;100.00
78562;BME280;68963;52.138;5.446;2023-04-08T04:35:01;102566.78;;;4.82;100.00
78562;BME280;68963;52.138;5.446;2023-04-08T04:37:28;102565.94;;;4.82;100.00
78562;BME280;68963;52.138;5.446;2023-04-08T04:39:54;102572.63;;;4.73;100.00
78562;BME280;68963;52.138;5.446;2023-04-08T04:42:21;102578.28;;;4.67;100.00
78562;BME280;68963;52.138;5.446;2023-04-08T04:44:48;102576.81;;;4.63;100.00
78562;BME280;68963;52.138;5.446;2023-04-08T04:47:14;102580.16;;;4.65;100.00
78562;BME280;68963;52.138;5.446;2023-04-08T04:49:41;102578.91;;;4.58;100.00
78562;BME280;68963;52.138;5.446;2023-04-08T04:52:08;102589.16;;;4.61;100.00
78562;BME280;68963;52.138;5.446;2023-04-08T04:54:35;102583.72;;;4.51;100.00
78562;BME280;68963;52.138;5.446;2023-04-08T04:57:01;102591.75;;;4.48;100.00
78562;BME280;68963;52.138;5.446;2023-04-08T04:59:28;102591.25;;;4.43;100.00
78562;BME280;68963;52.138;5.446;2023-04-08T05:01:54;102593.09;;;4.41;100.00
78562;BME280;68963;52.138;5.446;2023-04-08T05:04:23;102603.03;;;4.36;100.00
78562;BME280;68963;52.138;5.446;2023-04-08T05:06:50;102594.91;;;4.28;100.00
78562;BME280;68963;52.138;5.446;2023-04-08T05:09:17;102597.59;;;4.26;100.00
78562;BME280;68963;52.138;5.446;2023-04-08T05:11:43;102593.63;;;4.21;100.00
78562;BME280;68963;52.138;5.446;2023-04-08T05:14:10;102605.22;;;4.17;100.00
78562;BME280;68963;52.138;5.446;2023-04-08T05:16:36;102603.84;;;4.11;100.00
78562;BME280;68963;52.138;5.446;2023-04-08T05:19:04;102613.63;;;4.07;100.00
78562;BME280;68963;52.138;5.446;2023-04-08T05:21:30;102612.91;;;4.05;100.00
78562;BME280;68963;52.138;5.446;2023-04-08T05:23:57;102610.38;;;4.04;100.00
78562;BME280;68963;52.138;5.446;2023-04-08T05:26:24;102618.41;;;4.01;100.00
78562;BME280;68963;52.138;5.446;2023-04-08T05:28:51;102617.69;;;3.99;100.00
78562;BME280;68963;52.138;5.446;2023-04-08T05:31:18;102616.88;;;3.98;100.00
78562;BME280;68963;52.138;5.446;2023-04-08T05:33:46;102625.81;;;3.94;100.00
78562;BME280;68963;52.138;5.446;2023-04-08T05:36:13;102622.28;;;3.95;100.00
78562;BME280;68963;52.138;5.446;2023-04-08T05:38:40;102616.88;;;3.98;100.00
78562;BME280;68963;52.138;5.446;2023-04-08T05:41:09;102618.91;;;3.93;100.00
78562;BME280;68963;52.138;5.446;2023-04-08T05:43:36;102626.94;;;3.90;100.00
78562;BME280;68963;52.138;5.446;2023-04-08T05:46:06;102625.47;;;3.86;100.00
78562;BME280;68963;52.138;5.446;2023-04-08T05:48:34;102624.63;;;3.85;100.00
78562;BME280;68963;52.138;5.446;2023-04-08T05:51:00;102630.91;;;3.83;100.00
78562;BME280;68963;52.138;5.446;2023-04-08T05:53:27;102629.50;;;3.77;100.00
78562;BME280;68963;52.138;5.446;2023-04-08T05:55:54;102629.31;;;3.80;100.00
78562;BME280;68963;52.138;5.446;2023-04-08T05:58:20;102635.25;;;3.82;100.00
78562;BME280;68963;52.138;5.446;2023-04-08T06:00:47;102633.41;;;3.84;100.00
78562;BME280;68963;52.138;5.446;2023-04-08T06:03:13;102640.06;;;3.88;100.00
78562;BME280;68963;52.138;5.446;2023-04-08T06:05:44;102634.34;;;3.83;100.00
78562;BME280;68963;52.138;5.446;2023-04-08T06:08:10;102637.03;;;3.82;100.00
78562;BME280;68963;52.138;5.446;2023-04-08T06:10:37;102641.22;;;3.84;100.00
78562;BME280;68963;52.138;5.446;2023-04-08T06:13:03;102641.22;;;3.84;100.00
78562;BME280;68963;52.138;5.446;2023-04-08T06:15:30;102638.50;;;3.86;100.00
78562;BME280;68963;52.138;5.446;2023-04-08T06:17:57;102633.84;;;3.91;100.00
78562;BME280;68963;52.138;5.446;2023-04-08T06:20:24;102636.78;;;3.99;100.00
78562;BME280;68963;52.138;5.446;2023-04-08T06:22:50;102638.63;;;3.97;100.00
78562;BME280;68963;52.138;5.446;2023-04-08T06:25:17;102639.38;;;3.99;100.00
78562;BME280;68963;52.138;5.446;2023-04-08T06:27:43;102652.09;;;4.04;100.00
78562;BME280;68963;52.138;5.446;2023-04-08T06:30:10;102658.91;;;4.06;100.00
78562;BME280;68963;52.138;5.446;2023-04-08T06:32:37;102664.56;;;4.13;100.00
78562;BME280;68963;52.138;5.446;2023-04-08T06:35:03;102664.97;;;4.20;100.00
78562;BME280;68963;52.138;5.446;2023-04-08T06:37:30;102665.91;;;4.19;100.00
78562;BME280;68963;52.138;5.446;2023-04-08T06:39:57;102675.41;;;4.20;100.00
78562;BME280;68963;52.138;5.446;2023-04-08T06:42:23;102676.34;;;4.19;100.00
78562;BME280;68963;52.138;5.446;2023-04-08T06:44:50;102675.84;;;4.26;100.00
78562;BME280;68963;52.138;5.446;2023-04-08T06:47:16;102686.81;;;4.31;100.00
78562;BME280;68963;52.138;5.446;2023-04-08T06:49:43;102695.38;;;4.33;100.00
78562;BME280;68963;52.138;5.446;2023-04-08T06:52:09;102686.31;;;4.39;100.00
78562;BME280;68963;52.138;5.446;2023-04-08T06:54:39;102684.66;;;4.51;100.00
78562;BME280;68963;52.138;5.446;2023-04-08T06:57:06;102695.84;;;4.53;100.00
78562;BME280;68963;52.138;5.446;2023-04-08T06:59:32;102695.84;;;4.53;100.00
78562;BME280;68963;52.138;5.446;2023-04-08T07:01:59;102695.53;;;4.57;100.00
78562;BME280;68963;52.138;5.446;2023-04-08T07:04:26;102702.22;;;4.62;100.00
78562;BME280;68963;52.138;5.446;2023-04-08T07:06:53;102700.13;;;4.67;100.00
78562;BME280;68963;52.138;5.446;2023-04-08T07:09:20;102698.75;;;4.74;100.00
78562;BME280;68963;52.138;5.446;2023-04-08T07:11:46;102712.84;;;4.71;100.00
78562;BME280;68963;52.138;5.446;2023-04-08T07:14:13;102710.25;;;4.84;100.00
78562;BME280;68963;52.138;5.446;2023-04-08T07:16:40;102717.25;;;4.96;100.00
78562;BME280;68963;52.138;5.446;2023-04-08T07:19:06;102717.16;;;4.98;100.00
78562;BME280;68963;52.138;5.446;2023-04-08T07:21:33;102722.50;;;5.09;100.00
78562;BME280;68963;52.138;5.446;2023-04-08T07:24:00;102731.56;;;5.16;100.00
78562;BME280;68963;52.138;5.446;2023-04-08T07:26:26;102729.59;;;5.20;99.93
78562;BME280;68963;52.138;5.446;2023-04-08T07:28:53;102730.84;;;5.27;99.54
78562;BME280;68963;52.138;5.446;2023-04-08T07:31:20;102725.38;;;5.30;98.59
78562;BME280;68963;52.138;5.446;2023-04-08T07:33:47;102735.53;;;5.35;98.90
78562;BME280;68963;52.138;5.446;2023-04-08T07:36:13;102728.41;;;5.37;97.79
78562;BME280;68963;52.138;5.446;2023-04-08T07:38:40;102741.88;;;5.43;98.09
78562;BME280;68963;52.138;5.446;2023-04-08T07:41:07;102741.56;;;5.48;96.82
78562;BME280;68963;52.138;5.446;2023-04-08T07:43:34;102733.09;;;5.57;96.04
78562;BME280;68963;52.138;5.446;2023-04-08T07:46:03;102741.97;;;5.54;96.16
78562;BME280;68963;52.138;5.446;2023-04-08T07:48:31;102731.59;;;5.66;96.37
78562;BME280;68963;52.138;5.446;2023-04-08T07:51:02;102735.94;;;5.78;96.62
78562;BME280;68963;52.138;5.446;2023-04-08T07:53:35;102743.56;;;5.81;96.06
78562;BME280;68963;52.138;5.446;2023-04-08T07:56:02;102736.25;;;5.86;95.95
78562;BME280;68963;52.138;5.446;2023-04-08T07:58:32;102728.78;;;5.93;95.56
78562;BME280;68963;52.138;5.446;2023-04-08T08:00:58;102738.72;;;6.00;94.81
78562;BME280;68963;52.138;5.446;2023-04-08T08:03:25;102736.81;;;6.02;93.41
78562;BME280;68963;52.138;5.446;2023-04-08T08:05:52;102743.28;;;6.10;93.80
78562;BME280;68963;52.138;5.446;2023-04-08T08:08:19;102745.84;;;6.22;93.73
78562;BME280;68963;52.138;5.446;2023-04-08T08:10:45;102752.75;;;6.23;94.01
78562;BME280;68963;52.138;5.446;2023-04-08T08:13:12;102745.38;;;6.28;93.32
78562;BME280;68963;52.138;5.446;2023-04-08T08:15:42;102741.28;;;6.37;94.15
78562;BME280;68963;52.138;5.446;2023-04-08T08:18:08;102752.00;;;6.45;93.55
78562;BME280;68963;52.138;5.446;2023-04-08T08:20:35;102740.22;;;6.51;93.81
78562;BME280;68963;52.138;5.446;2023-04-08T08:23:02;102739.78;;;6.57;92.85
78562;BME280;68963;52.138;5.446;2023-04-08T08:25:28;102746.34;;;6.63;93.61
78562;BME280;68963;52.138;5.446;2023-04-08T08:27:55;102746.72;;;6.69;93.23
78562;BME280;68963;52.138;5.446;2023-04-08T08:30:21;102754.50;;;6.82;91.38
78562;BME280;68963;52.138;5.446;2023-04-08T08:32:48;102757.72;;;6.86;90.22
78562;BME280;68963;52.138;5.446;2023-04-08T08:35:16;102752.97;;;6.91;91.55
78562;BME280;68963;52.138;5.446;2023-04-08T08:37:43;102755.59;;;7.02;91.65
78562;BME280;68963;52.138;5.446;2023-04-08T08:40:09;102757.03;;;7.06;90.67
78562;BME280;68963;52.138;5.446;2023-04-08T08:42:37;102753.72;;;7.15;90.72
78562;BME280;68963;52.138;5.446;2023-04-08T08:45:04;102759.91;;;7.25;90.81
78562;BME280;68963;52.138;5.446;2023-04-08T08:47:32;102763.00;;;7.31;89.34
78562;BME280;68963;52.138;5.446;2023-04-08T08:49:59;102757.63;;;7.43;89.93
78562;BME280;68963;52.138;5.446;2023-04-08T08:52:26;102752.06;;;7.48;89.28
78562;BME280;68963;52.138;5.446;2023-04-08T08:54:58;102766.94;;;7.47;89.28
78562;BME280;68963;52.138;5.446;2023-04-08T08:57:25;102760.25;;;7.55;88.84
78562;BME280;68963;52.138;5.446;2023-04-08T08:59:52;102765.75;;;7.63;88.72
78562;BME280;68963;52.138;5.446;2023-04-08T09:02:23;102766.06;;;7.69;88.38
78562;BME280;68963;52.138;5.446;2023-04-08T09:05:00;102760.59;;;7.72;88.25
78562;BME280;68963;52.138;5.446;2023-04-08T09:07:29;102770.84;;;7.75;86.18
78562;BME280;68963;52.138;5.446;2023-04-08T09:09:57;102772.50;;;7.77;86.29
78562;BME280;68963;52.138;5.446;2023-04-08T09:12:25;102774.16;;;7.89;86.07
78562;BME280;68963;52.138;5.446;2023-04-08T09:15:06;102779.03;;;7.93;86.47
78562;BME280;68963;52.138;5.446;2023-04-08T09:17:38;102781.41;;;8.08;86.03
78562;BME280;68963;52.138;5.446;2023-04-08T09:20:09;102769.53;;;8.24;85.56
78562;BME280;68963;52.138;5.446;2023-04-08T09:23:06;102773.06;;;8.35;86.49
78562;BME280;68963;52.138;5.446;2023-04-08T09:25:33;102773.44;;;8.41;86.42
78562;BME280;68963;52.138;5.446;2023-04-08T09:27:59;102779.28;;;8.45;85.49
78562;BME280;68963;52.138;5.446;2023-04-08T09:30:28;102783.75;;;8.54;85.81
78562;BME280;68963;52.138;5.446;2023-04-08T09:32:56;102790.75;;;8.65;84.14
78562;BME280;68963;52.138;5.446;2023-04-08T09:35:24;102788.72;;;8.68;84.07
78562;BME280;68963;52.138;5.446;2023-04-08T09:37:50;102782.94;;;8.75;81.12
78562;BME280;68963;52.138;5.446;2023-04-08T09:40:17;102790.00;;;8.74;80.83
78562;BME280;68963;52.138;5.446;2023-04-08T09:42:46;102787.16;;;8.87;81.54
78562;BME280;68963;52.138;5.446;2023-04-08T09:45:17;102789.22;;;9.04;80.35
78562;BME280;68963;52.138;5.446;2023-04-08T09:50:25;102792.75;;;9.14;79.75
78562;BME280;68963;52.138;5.446;2023-04-08T09:52:58;102784.34;;;9.21;79.04
78562;BME280;68963;52.138;5.446;2023-04-08T09:55:27;102786.03;;;9.31;79.13
78562;BME280;68963;52.138;5.446;2023-04-08T09:58:01;102781.66;;;9.41;78.47
78562;BME280;68963;52.138;5.446;2023-04-08T10:00:32;102781.25;;;9.46;78.13
78562;BME280;68963;52.138;5.446;2023-04-08T10:03:38;102781.09;;;9.68;79.39
78562;BME280;68963;52.138;5.446;2023-04-08T10:06:07;102779.44;;;9.77;78.49
78562;BME280;68963;52.138;5.446;2023-04-08T10:08:34;102779.28;;;9.69;76.49
78562;BME280;68963;52.138;5.446;2023-04-08T10:11:01;102775.09;;;9.66;77.98
78562;BME280;68963;52.138;5.446;2023-04-08T10:13:27;102782.38;;;9.84;74.73
78562;BME280;68963;52.138;5.446;2023-04-08T10:16:21;102771.69;;;9.85;75.52
78562;BME280;68963;52.138;5.446;2023-04-08T10:18:48;102772.97;;;9.91;75.60
78562;BME280;68963;52.138;5.446;2023-04-08T10:24:00;102771.75;;;10.14;73.19
78562;BME280;68963;52.138;5.446;2023-04-08T10:26:39;102761.63;;;10.20;73.54
78562;BME280;68963;52.138;5.446;2023-04-08T10:31:44;102766.50;;;10.63;72.10
78562;BME280;68963;52.138;5.446;2023-04-08T10:34:18;102777.03;;;10.73;70.13
78562;BME280;68963;52.138;5.446;2023-04-08T10:36:46;102772.75;;;10.72;68.31
78562;BME280;68963;52.138;5.446;2023-04-08T10:39:13;102773.81;;;10.88;67.46
78562;BME280;68963;52.138;5.446;2023-04-08T10:41:41;102776.31;;;10.80;69.60
78562;BME280;68963;52.138;5.446;2023-04-08T10:44:22;102767.97;;;10.85;71.47
78562;BME280;68963;52.138;5.446;2023-04-08T10:46:49;102773.97;;;10.87;68.87
78562;BME280;68963;52.138;5.446;2023-04-08T10:49:16;102768.09;;;10.93;67.21
78562;BME280;68963;52.138;5.446;2023-04-08T10:51:44;102771.28;;;10.97;67.95
78562;BME280;68963;52.138;5.446;2023-04-08T10:54:14;102766.56;;;11.00;68.05
78562;BME280;68963;52.138;5.446;2023-04-08T10:59:12;102761.44;;;10.99;67.77
78562;BME280;68963;52.138;5.446;2023-04-08T11:01:43;102756.16;;;11.08;68.57
78562;BME280;68963;52.138;5.446;2023-04-08T11:04:15;102759.81;;;11.25;67.17
78562;BME280;68963;52.138;5.446;2023-04-08T11:06:43;102758.59;;;11.20;65.88
78562;BME280;68963;52.138;5.446;2023-04-08T11:09:10;102755.47;;;11.34;66.63
78562;BME280;68963;52.138;5.446;2023-04-08T11:11:37;102761.41;;;11.46;65.10
78562;BME280;68963;52.138;5.446;2023-04-08T11:14:03;102759.19;;;11.41;63.53
78562;BME280;68963;52.138;5.446;2023-04-08T11:16:31;102761.25;;;11.47;63.74
78562;BME280;68963;52.138;5.446;2023-04-08T11:18:58;102757.00;;;11.64;61.15
78562;BME280;68963;52.138;5.446;2023-04-08T11:21:25;102758.41;;;11.58;59.54
78562;BME280;68963;52.138;5.446;2023-04-08T11:23:54;102750.38;;;11.78;60.58
78562;BME280;68963;52.138;5.446;2023-04-08T11:26:22;102750.84;;;12.01;59.34
78562;BME280;68963;52.138;5.446;2023-04-08T11:28:49;102754.91;;;12.13;55.41
78562;BME280;68963;52.138;5.446;2023-04-08T11:31:17;102749.97;;;12.18;58.21
78562;BME280;68963;52.138;5.446;2023-04-08T11:33:52;102751.72;;;12.09;55.35
78562;BME280;68963;52.138;5.446;2023-04-08T11:36:19;102752.63;;;12.18;54.65
78562;BME280;68963;52.138;5.446;2023-04-08T11:38:47;102761.25;;;12.20;54.65
78562;BME280;68963;52.138;5.446;2023-04-08T11:41:15;102753.59;;;12.35;56.71
78562;BME280;68963;52.138;5.446;2023-04-08T11:43:52;102749.69;;;12.39;54.41
78562;BME280;68963;52.138;5.446;2023-04-08T11:46:19;102751.97;;;12.34;52.13
78562;BME280;68963;52.138;5.446;2023-04-08T11:48:59;102759.06;;;12.16;52.66
78562;BME280;68963;52.138;5.446;2023-04-08T11:51:26;102755.59;;;12.15;55.00
78562;BME280;68963;52.138;5.446;2023-04-08T11:53:54;102750.75;;;12.28;53.26
78562;BME280;68963;52.138;5.446;2023-04-08T11:56:22;102754.66;;;12.42;47.37
78562;BME280;68963;52.138;5.446;2023-04-08T11:58:49;102753.31;;;12.38;50.52
78562;BME280;68963;52.138;5.446;2023-04-08T12:01:17;102756.38;;;12.51;50.18
78562;BME280;68963;52.138;5.446;2023-04-08T12:03:57;102750.53;;;12.66;52.36
78562;BME280;68963;52.138;5.446;2023-04-08T12:06:25;102758.22;;;12.77;50.42
78562;BME280;68963;52.138;5.446;2023-04-08T12:08:55;102748.19;;;12.63;49.42
78562;BME280;68963;52.138;5.446;2023-04-08T12:11:22;102748.72;;;12.66;45.94
78562;BME280;68963;52.138;5.446;2023-04-08T12:13:49;102745.50;;;12.80;47.57
78562;BME280;68963;52.138;5.446;2023-04-08T12:16:17;102744.84;;;13.04;50.02
78562;BME280;68963;52.138;5.446;2023-04-08T12:18:44;102752.59;;;13.32;50.45
78562;BME280;68963;52.138;5.446;2023-04-08T12:21:12;102748.31;;;13.31;48.99
78562;BME280;68963;52.138;5.446;2023-04-08T12:23:38;102745.75;;;13.21;46.36
78562;BME280;68963;52.138;5.446;2023-04-08T12:26:05;102755.81;;;13.18;44.19
78562;BME280;68963;52.138;5.446;2023-04-08T12:28:31;102752.19;;;13.19;42.85
78562;BME280;68963;52.138;5.446;2023-04-08T12:30:59;102751.63;;;13.33;42.31
78562;BME280;68963;52.138;5.446;2023-04-08T12:33:26;102747.00;;;13.35;42.15
78562;BME280;68963;52.138;5.446;2023-04-08T12:35:52;102742.56;;;13.44;41.62
78562;BME280;68963;52.138;5.446;2023-04-08T12:38:19;102749.56;;;13.53;41.67
78562;BME280;68963;52.138;5.446;2023-04-08T12:40:45;102743.41;;;13.44;42.54
78562;BME280;68963;52.138;5.446;2023-04-08T12:43:15;102745.56;;;13.49;43.55
78562;BME280;68963;52.138;5.446;2023-04-08T12:45:41;102741.94;;;13.50;44.11
78562;BME280;68963;52.138;5.446;2023-04-08T12:48:08;102733.97;;;13.42;43.86
78562;BME280;68963;52.138;5.446;2023-04-08T12:50:35;102748.84;;;13.43;44.83
78562;BME280;68963;52.138;5.446;2023-04-08T12:53:02;102746.22;;;13.51;43.83
78562;BME280;68963;52.138;5.446;2023-04-08T12:55:28;102737.50;;;13.59;45.23
78562;BME280;68963;52.138;5.446;2023-04-08T12:57:55;102747.06;;;13.51;46.49
78562;BME280;68963;52.138;5.446;2023-04-08T13:00:21;102746.47;;;13.32;47.95
78562;BME280;68963;52.138;5.446;2023-04-08T13:02:48;102739.44;;;13.48;46.95
78562;BME280;68963;52.138;5.446;2023-04-08T13:05:15;102742.44;;;13.53;47.57
78562;BME280;68963;52.138;5.446;2023-04-08T13:07:46;102746.28;;;13.67;48.66
78562;BME280;68963;52.138;5.446;2023-04-08T13:10:13;102756.69;;;13.61;47.14
78562;BME280;68963;52.138;5.446;2023-04-08T13:12:39;102748.91;;;13.59;47.54
78562;BME280;68963;52.138;5.446;2023-04-08T13:15:07;102746.19;;;13.43;44.97